Time;durP1;ratioP1;P1;durP2;ratioP2;P2;SDS_P1;SDS_P2;PMS_P1;PMS_P2;Temp;Humidity;BMP_temperature;BMP_pressure;BME280_temperature;BME280_humidity;BME280_pressure;Samples;Min_cycle;Max_cycle;Signal;HPM_P1;HPM_P2
2021/07/26 00:02:08;;;;;;;10.32;2.30;;;;;;;25.60;44.24;98277.50;5047988;28;20022;-51
2021/07/26 00:04:37;;;;;;;5.88;2.40;;;;;;;25.43;44.58;98273.59;5031665;28;20083;-51
2021/07/26 00:07:03;;;;;;;6.95;2.65;;;;;;;25.30;44.87;98272.59;5032504;28;20072;-52
2021/07/26 00:09:29;;;;;;;4.05;2.17;;;;;;;25.19;45.07;98276.59;5031222;28;20117;-51
2021/07/26 00:11:54;;;;;;;3.40;2.05;;;;;;;25.12;45.20;98268.97;5032445;28;20100;-51
2021/07/26 00:14:20;;;;;;;3.63;2.08;;;;;;;25.10;45.44;98267.69;5032437;28;20034;-52
2021/07/26 00:16:46;;;;;;;10.10;4.63;;;;;;;25.11;45.53;98278.16;5032167;28;20017;-51
2021/07/26 00:19:11;;;;;;;5.63;2.60;;;;;;;25.15;45.47;98274.84;5032389;28;20081;-51
2021/07/26 00:21:37;;;;;;;5.10;2.65;;;;;;;25.20;45.39;98266.66;5032301;28;20051;-51
2021/07/26 00:24:03;;;;;;;6.95;2.70;;;;;;;25.20;45.24;98269.34;5032029;28;20033;-51
2021/07/26 00:26:29;;;;;;;7.35;3.42;;;;;;;25.17;45.26;98264.56;5032200;28;20056;-51
2021/07/26 00:28:55;;;;;;;2.88;2.20;;;;;;;25.17;45.55;98253.84;5032110;28;20044;-51
2021/07/26 00:31:21;;;;;;;5.57;2.20;;;;;;;25.17;45.60;98262.69;5047390;28;20049;-51
2021/07/26 00:34:24;;;;;;;22.15;16.73;;;;;;;25.14;45.60;98259.84;5032095;28;20399;-51
2021/07/26 00:36:55;;;;;;;6.60;3.10;;;;;;;25.16;45.59;98263.00;5047336;28;20033;-52
2021/07/26 00:39:24;;;;;;;5.25;2.40;;;;;;;25.23;45.34;98266.88;5047376;28;20120;-51
2021/07/26 00:41:51;;;;;;;4.03;2.00;;;;;;;25.31;45.24;98262.63;5032013;28;20104;-51
2021/07/26 00:44:19;;;;;;;13.18;9.38;;;;;;;25.27;45.40;98257.09;5031921;28;20567;-51
2021/07/26 00:46:46;;;;;;;13.95;10.13;;;;;;;25.25;45.54;98256.63;5031939;28;20079;-52
2021/07/26 00:49:16;;;;;;;11.18;7.22;;;;;;;25.37;45.18;98256.03;5031805;28;20071;-51
2021/07/26 00:51:57;;;;;;;6.57;2.40;;;;;;;25.34;45.26;98250.50;5032139;28;20045;-51
2021/07/26 00:54:26;;;;;;;8.85;3.65;;;;;;;25.25;45.57;98259.31;5047198;28;20033;-51
2021/07/26 00:56:55;;;;;;;5.30;3.55;;;;;;;25.21;45.43;98255.66;5031807;28;20098;-51
2021/07/26 00:59:21;;;;;;;7.68;3.58;;;;;;;25.25;45.62;98259.31;5031840;28;20052;-51
2021/07/26 01:01:46;;;;;;;4.93;2.55;;;;;;;25.28;45.50;98269.41;5031743;28;20068;-52
2021/07/26 01:04:12;;;;;;;5.28;2.72;;;;;;;25.23;45.35;98266.88;5030484;28;20125;-51
2021/07/26 01:06:39;;;;;;;8.07;5.97;;;;;;;25.29;45.35;98273.72;5031717;28;20025;-51
2021/07/26 01:09:05;;;;;;;9.90;3.13;;;;;;;25.34;44.85;98269.31;5031675;28;20487;-52
2021/07/26 01:11:31;;;;;;;16.35;10.57;;;;;;;25.27;45.03;98264.34;5031719;28;20030;-51
2021/07/26 01:13:57;;;;;;;6.28;3.60;;;;;;;25.12;45.56;98265.50;5031676;28;20491;-51
2021/07/26 01:16:23;;;;;;;8.60;3.28;;;;;;;25.21;45.46;98261.03;5030321;28;20120;-51
2021/07/26 01:18:50;;;;;;;5.43;3.08;;;;;;;25.61;44.82;98252.97;5046692;28;20056;-51
2021/07/26 01:21:18;;;;;;;4.80;2.38;;;;;;;25.82;44.18;98263.19;5031582;28;20469;-51
2021/07/26 01:23:46;;;;;;;4.85;3.03;;;;;;;25.82;44.22;98258.59;5031568;28;20018;-51
2021/07/26 01:26:15;;;;;;;6.85;3.20;;;;;;;25.69;44.26;98248.75;5031492;28;20021;-51
2021/07/26 01:28:43;;;;;;;16.48;14.75;;;;;;;25.75;44.54;98260.16;5031450;28;20022;-51
2021/07/26 01:31:10;;;;;;;8.82;3.17;;;;;;;25.89;44.14;98255.47;5031438;28;20098;-51
2021/07/26 01:33:38;;;;;;;9.27;3.75;;;;;;;25.89;44.31;98258.16;5031434;28;20025;-52
2021/07/26 01:36:05;;;;;;;8.13;3.42;;;;;;;26.00;44.29;98250.63;5033863;28;20018;-51
2021/07/26 01:38:30;;;;;;;5.22;2.50;;;;;;;26.05;43.99;98255.84;5035349;28;20120;-51
2021/07/26 01:41:07;;;;;;;12.43;7.65;;;;;;;25.85;44.25;98251.81;5035266;28;20614;-51
2021/07/26 01:43:34;;;;;;;6.75;2.45;;;;;;;25.69;44.87;98241.47;5035325;28;20048;-51
2021/07/26 01:46:19;;;;;;;15.55;10.98;;;;;;;25.78;44.72;98252.28;5035221;28;20036;-51
2021/07/26 01:49:01;;;;;;;9.43;2.78;;;;;;;25.57;44.71;98253.91;5035174;28;20021;-51
2021/07/26 01:51:40;;;;;;;5.18;3.40;;;;;;;25.33;45.23;98249.69;5035200;28;20114;-51
2021/07/26 01:54:07;;;;;;;6.63;2.58;;;;;;;25.12;45.46;98250.19;5035105;28;20030;-51
2021/07/26 01:56:33;;;;;;;9.82;7.15;;;;;;;24.83;46.23;98264.06;5034997;28;20026;-52
2021/07/26 01:59:03;;;;;;;6.85;2.55;;;;;;;24.74;46.84;98262.38;5034943;28;20080;-52
2021/07/26 02:01:30;;;;;;;7.43;5.57;;;;;;;24.75;46.57;98262.09;5034885;28;20032;-52
2021/07/26 02:03:56;;;;;;;6.18;2.70;;;;;;;24.75;46.88;98266.66;5034881;28;20381;-51
2021/07/26 02:06:22;;;;;;;7.72;3.70;;;;;;;24.67;46.97;98262.78;5034807;28;20021;-51
2021/07/26 02:08:48;;;;;;;7.38;3.15;;;;;;;24.71;47.14;98256.53;5034663;28;20424;-51
2021/07/26 02:11:14;;;;;;;10.30;4.07;;;;;;;24.78;47.19;98261.47;5034701;28;20079;-51
2021/07/26 02:13:40;;;;;;;12.05;5.88;;;;;;;24.74;47.11;98259.72;5034694;28;20582;-51
2021/07/26 02:16:12;;;;;;;7.47;2.83;;;;;;;24.65;47.63;98265.81;5034568;28;20033;-51
2021/07/26 02:18:38;;;;;;;10.70;5.53;;;;;;;24.72;47.56;98262.69;5049548;28;20052;-51
2021/07/26 02:21:04;;;;;;;6.90;2.97;;;;;;;24.85;47.35;98266.41;5049814;28;20025;-52
2021/07/26 02:23:30;;;;;;;9.35;5.10;;;;;;;25.08;47.13;98265.31;5049800;28;20534;-51
2021/07/26 02:25:56;;;;;;;10.60;3.72;;;;;;;25.26;46.74;98268.16;5034441;28;20026;-52
2021/07/26 02:28:22;;;;;;;10.02;3.78;;;;;;;25.35;46.44;98265.50;5034404;28;20030;-51
2021/07/26 02:30:48;;;;;;;7.28;3.58;;;;;;;25.50;46.21;98267.81;5033005;28;20029;-51
2021/07/26 02:33:14;;;;;;;4.82;2.20;;;;;;;25.54;46.28;98255.34;5034250;28;20096;-52
2021/07/26 02:35:40;;;;;;;6.53;4.50;;;;;;;25.50;46.43;98257.84;5032886;28;20033;-51
2021/07/26 02:38:06;;;;;;;6.88;2.47;;;;;;;25.42;47.02;98260.50;5049443;28;20029;-51
2021/07/26 02:40:31;;;;;;;7.75;3.20;;;;;;;25.56;46.45;98269.25;5032910;28;20380;-51
2021/07/26 02:42:57;;;;;;;6.45;2.20;;;;;;;25.67;46.37;98264.38;5034115;28;20063;-51
2021/07/26 02:45:27;;;;;;;6.10;3.40;;;;;;;25.71;45.84;98255.38;5034171;28;20018;-51
2021/07/26 02:47:53;;;;;;;10.40;3.22;;;;;;;25.63;45.92;98258.06;5034061;28;20034;-52
2021/07/26 02:50:20;;;;;;;10.85;5.63;;;;;;;25.55;45.58;98261.50;5033977;28;20021;-51
2021/07/26 02:52:46;;;;;;;6.78;3.30;;;;;;;25.49;45.90;98258.16;5034285;28;20030;-51
2021/07/26 02:55:12;;;;;;;10.30;3.20;;;;;;;25.46;45.93;98270.31;5033895;28;20509;-51
2021/07/26 02:57:38;;;;;;;8.35;3.33;;;;;;;25.50;46.09;98260.53;5033959;28;20021;-51
2021/07/26 03:00:06;;;;;;;6.25;2.95;;;;;;;25.44;46.50;98260.97;5049147;28;20574;-52
2021/07/26 03:02:35;;;;;;;7.43;4.38;;;;;;;25.47;46.86;98261.16;5033800;28;20021;-51
2021/07/26 03:05:02;;;;;;;10.23;2.70;;;;;;;25.42;46.65;98265.88;5033698;28;20026;-51
2021/07/26 03:07:27;;;;;;;9.82;5.32;;;;;;;25.35;47.18;98263.59;5032638;28;20112;-51
2021/07/26 03:09:53;;;;;;;10.05;3.30;;;;;;;25.43;47.03;98270.91;5048890;28;20116;-51
2021/07/26 03:12:18;;;;;;;14.27;12.90;;;;;;;25.59;46.79;98274.00;5033622;28;20025;-51
2021/07/26 03:14:44;;;;;;;31.48;28.77;;;;;;;25.65;46.63;98264.69;5048818;28;20028;-52
2021/07/26 03:17:10;;;;;;;6.90;3.25;;;;;;;25.72;46.43;98266.94;5033280;28;20038;-51
2021/07/26 03:19:35;;;;;;;7.07;2.60;;;;;;;25.75;46.30;98265.53;5048799;28;20025;-51
2021/07/26 03:22:49;;;;;;;5.63;2.60;;;;;;;25.67;46.52;98267.88;5048679;28;20029;-51
2021/07/26 03:25:15;;;;;;;18.58;13.73;;;;;;;25.70;46.29;98269.16;5028262;28;20441;-51
2021/07/26 03:27:42;;;;;;;7.53;2.80;;;;;;;25.68;46.42;98269.47;5033241;28;20037;-51
2021/07/26 03:30:09;;;;;;;29.13;26.50;;;;;;;25.65;46.29;98274.66;5033231;28;20026;-51
2021/07/26 03:32:35;;;;;;;6.10;3.80;;;;;;;25.64;46.39;98265.81;5033218;28;20053;-51
2021/07/26 03:35:00;;;;;;;8.30;5.25;;;;;;;25.62;46.43;98265.31;5033118;28;20037;-51
2021/07/26 03:37:26;;;;;;;8.80;4.32;;;;;;;25.44;46.82;98272.50;5033187;28;20388;-51
2021/07/26 03:39:52;;;;;;;17.00;8.73;;;;;;;25.35;46.68;98273.56;5033100;28;20028;-51
2021/07/26 03:42:17;;;;;;;31.00;17.98;;;;;;;25.25;46.57;98267.38;5032978;28;20499;-51
2021/07/26 03:44:43;;;;;;;9.57;3.45;;;;;;;25.21;46.78;98271.75;5032930;28;20395;-51
2021/07/26 03:47:09;;;;;;;21.98;12.90;;;;;;;25.18;46.74;98272.34;5032908;28;20052;-50
2021/07/26 03:49:34;;;;;;;10.82;3.08;;;;;;;25.08;47.10;98275.28;5048070;28;20074;-51
2021/07/26 03:52:01;;;;;;;9.68;3.08;;;;;;;25.00;47.05;98278.69;5048180;28;20398;-51
2021/07/26 03:54:27;;;;;;;8.10;2.90;;;;;;;24.84;47.50;98279.03;5032851;28;20022;-51
2021/07/26 03:56:57;;;;;;;20.25;18.40;;;;;;;24.52;48.05;98274.66;5032733;28;20112;-51
2021/07/26 03:59:23;;;;;;;10.20;4.50;;;;;;;24.41;48.83;98278.63;5032242;28;20022;-52
2021/07/26 04:01:48;;;;;;;9.52;4.18;;;;;;;24.43;49.07;98282.63;5032669;28;20053;-51
2021/07/26 04:04:16;;;;;;;7.88;3.05;;;;;;;24.45;48.51;98293.06;5032669;28;20076;-51
2021/07/26 04:06:46;;;;;;;9.05;3.30;;;;;;;24.45;48.97;98287.69;5032477;28;20120;-51
2021/07/26 04:09:12;;;;;;;9.10;3.40;;;;;;;24.65;48.70;98286.44;5032567;28;20022;-52
2021/07/26 04:11:39;;;;;;;6.28;2.90;;;;;;;24.62;48.50;98284.38;5047704;28;20028;-51
2021/07/26 04:14:06;;;;;;;8.27;3.13;;;;;;;24.58;48.59;98296.81;5032464;28;20128;-51
2021/07/26 04:16:32;;;;;;;13.25;5.40;;;;;;;24.55;48.33;98292.03;5047536;28;20021;-52
2021/07/26 04:19:00;;;;;;;15.15;2.92;;;;;;;24.37;49.12;98296.41;5031008;28;20041;-51
2021/07/26 04:21:30;;;;;;;22.85;12.70;;;;;;;24.60;48.86;98306.16;5032237;28;20513;-51
2021/07/26 04:23:56;;;;;;;19.05;5.30;;;;;;;24.59;48.98;98307.25;5047556;28;20030;-51
2021/07/26 04:26:22;;;;;;;12.43;3.92;;;;;;;24.70;48.94;98313.19;5032286;28;20443;-51
2021/07/26 04:28:47;;;;;;;3.22;2.80;;;;;;;24.89;48.30;98302.28;5032170;28;20025;-51
2021/07/26 04:31:13;;;;;;;9.77;5.47;;;;;;;24.81;48.00;98309.19;5032138;28;20392;-51
2021/07/26 04:33:39;;;;;;;5.97;3.30;;;;;;;24.73;48.11;98309.91;5032311;28;20443;-52
2021/07/26 04:36:05;;;;;;;15.52;3.70;;;;;;;24.66;47.94;98313.00;5032113;28;20021;-51
2021/07/26 04:38:31;;;;;;;9.77;3.60;;;;;;;24.68;48.01;98318.84;5032111;28;20383;-52
2021/07/26 04:40:58;;;;;;;8.45;3.47;;;;;;;24.72;47.76;98321.72;5032010;28;20071;-52
2021/07/26 04:43:27;;;;;;;6.80;2.72;;;;;;;24.74;47.40;98318.75;5032079;28;20402;-51
2021/07/26 04:45:55;;;;;;;10.60;2.97;;;;;;;24.85;47.27;98314.72;5031990;28;20056;-51
2021/07/26 04:48:21;;;;;;;7.78;2.85;;;;;;;25.13;46.43;98307.34;5031909;28;20177;-51
2021/07/26 04:50:46;;;;;;;12.27;3.35;;;;;;;24.73;46.69;98304.53;5030580;28;20040;-51
2021/07/26 04:53:12;;;;;;;7.25;3.30;;;;;;;24.47;47.76;98298.91;5031961;28;20052;-51
2021/07/26 04:55:38;;;;;;;4.97;2.70;;;;;;;24.51;48.37;98321.38;5031944;28;20026;-51
2021/07/26 04:58:03;;;;;;;7.20;3.85;;;;;;;24.68;47.98;98318.84;5030613;28;20107;-51
2021/07/26 05:00:30;;;;;;;15.80;4.90;;;;;;;24.68;47.96;98320.75;5031897;28;20551;-51
2021/07/26 05:02:56;;;;;;;13.32;3.95;;;;;;;24.84;47.88;98321.19;5047099;28;20021;-52
2021/07/26 05:05:22;;;;;;;14.57;3.88;;;;;;;25.08;47.53;98324.38;5031754;28;20391;-51
2021/07/26 05:07:48;;;;;;;16.55;4.47;;;;;;;25.38;47.04;98321.31;5031758;28;20029;-51
2021/07/26 05:10:13;;;;;;;49.58;5.82;;;;;;;25.54;46.73;98329.78;5032906;28;20022;-51
2021/07/26 05:12:39;;;;;;;10.15;4.43;;;;;;;25.59;46.57;98319.69;5035821;28;20507;-51
2021/07/26 05:15:05;;;;;;;16.13;4.53;;;;;;;25.75;46.22;98322.75;5035825;28;20049;-51
2021/07/26 05:17:31;;;;;;;13.77;3.97;;;;;;;25.80;45.96;98327.25;5035593;28;20042;-52
2021/07/26 05:19:57;;;;;;;17.27;4.50;;;;;;;26.01;45.61;98330.19;5035742;28;20449;-52
2021/07/26 05:22:23;;;;;;;12.68;4.15;;;;;;;25.82;45.62;98333.88;5035676;28;20048;-51
2021/07/26 05:24:52;;;;;;;37.45;19.95;;;;;;;25.62;46.17;98331.72;5050905;28;20037;-51
2021/07/26 05:27:19;;;;;;;28.60;17.15;;;;;;;25.59;46.26;98337.72;5035624;28;20468;-51
2021/07/26 05:29:45;;;;;;;97.10;79.38;;;;;;;25.62;46.42;98337.88;5035417;28;20079;-51
2021/07/26 05:32:11;;;;;;;47.75;33.88;;;;;;;25.70;46.25;98339.81;5035512;28;20140;-51
2021/07/26 05:34:36;;;;;;;9.63;4.70;;;;;;;25.95;45.56;98344.88;5035446;28;20025;-51
2021/07/26 05:37:02;;;;;;;13.00;4.75;;;;;;;26.09;45.03;98342.88;5050695;28;20083;-51
2021/07/26 05:39:28;;;;;;;8.07;3.40;;;;;;;26.06;45.16;98344.28;5034049;28;20025;-51
2021/07/26 05:41:57;;;;;;;9.52;3.58;;;;;;;26.01;45.22;98346.31;5035318;28;20075;-52
2021/07/26 05:44:23;;;;;;;14.45;3.60;;;;;;;25.71;45.51;98348.69;5035282;28;20407;-51
2021/07/26 05:46:49;;;;;;;15.82;4.80;;;;;;;25.38;46.54;98350.88;5035154;28;20032;-51
2021/07/26 05:49:15;;;;;;;9.75;3.75;;;;;;;25.59;46.36;98349.25;5035094;28;20060;-52
2021/07/26 05:51:41;;;;;;;55.80;44.10;;;;;;;25.76;45.90;98351.25;5035112;28;20033;-51
2021/07/26 05:54:06;;;;;;;16.23;6.53;;;;;;;25.85;45.84;98351.28;5035100;28;20053;-51
2021/07/26 05:56:40;;;;;;;14.00;4.63;;;;;;;25.90;45.55;98353.88;5050295;28;20053;-51
2021/07/26 05:59:07;;;;;;;8.07;3.80;;;;;;;26.03;45.17;98360.25;5035116;28;20142;-51
2021/07/26 06:01:48;;;;;;;12.45;4.50;;;;;;;25.71;45.34;98359.44;5034817;28;20037;-51
2021/07/26 06:04:16;;;;;;;13.40;3.95;;;;;;;25.36;46.43;98361.91;5034954;28;20075;-51
2021/07/26 06:06:45;;;;;;;8.95;3.42;;;;;;;25.28;46.46;98366.13;5034861;28;20083;-50
2021/07/26 06:09:11;;;;;;;13.07;5.13;;;;;;;25.46;46.32;98372.41;5034755;28;20122;-51
2021/07/26 06:11:39;;;;;;;10.52;4.90;;;;;;;26.04;45.25;98376.09;5034724;28;20032;-51
2021/07/26 06:14:05;;;;;;;20.95;4.72;;;;;;;26.65;44.27;98381.69;5034760;28;20395;-51
2021/07/26 06:16:31;;;;;;;26.08;14.82;;;;;;;27.76;42.46;98372.31;5049953;28;20037;-51
2021/07/26 06:19:01;;;;;;;18.85;9.55;;;;;;;28.85;39.91;98378.97;5034403;28;20053;-51
2021/07/26 06:21:27;;;;;;;33.22;29.27;;;;;;;28.94;39.43;98383.53;5034139;28;20522;-50
2021/07/26 06:23:53;;;;;;;19.83;7.18;;;;;;;29.37;38.28;98382.41;5050157;28;20029;-51
2021/07/26 06:26:18;;;;;;;13.65;6.03;;;;;;;28.98;38.60;98379.06;5034536;28;20483;-51
2021/07/26 06:28:44;;;;;;;29.27;6.50;;;;;;;28.47;39.45;98390.63;5034357;28;20029;-51
2021/07/26 06:31:14;;;;;;;13.00;4.63;;;;;;;28.21;40.03;98392.66;5049751;28;20025;-51
2021/07/26 06:33:39;;;;;;;14.55;4.60;;;;;;;27.92;40.88;98398.81;5034332;28;20033;-51
2021/07/26 06:36:05;;;;;;;17.95;7.65;;;;;;;27.52;41.64;98388.22;5049628;28;20022;-51
2021/07/26 06:38:30;;;;;;;16.88;4.93;;;;;;;27.18;42.42;98395.19;5034240;28;20025;-51
2021/07/26 06:40:56;;;;;;;16.30;4.95;;;;;;;27.04;42.49;98404.22;5034277;28;20026;-51
2021/07/26 06:43:22;;;;;;;12.48;5.00;;;;;;;26.65;43.36;98405.13;5034215;28;20036;-51
2021/07/26 06:45:48;;;;;;;10.05;3.78;;;;;;;26.49;43.68;98410.09;5034117;28;20025;-51
2021/07/26 06:48:13;;;;;;;12.82;4.45;;;;;;;26.40;43.84;98404.72;5034111;28;20018;-51
2021/07/26 06:50:40;;;;;;;13.52;4.68;;;;;;;26.24;43.94;98404.34;5033938;28;20155;-51
2021/07/26 06:53:08;;;;;;;7.00;3.55;;;;;;;26.24;44.16;98409.72;5032731;28;20098;-51
2021/07/26 06:55:37;;;;;;;10.98;4.60;;;;;;;26.23;44.22;98408.09;5033890;28;20026;-51
2021/07/26 06:58:06;;;;;;;11.55;4.35;;;;;;;26.21;44.31;98406.84;5033958;28;20049;-51
2021/07/26 07:00:34;;;;;;;13.18;4.93;;;;;;;26.23;44.50;98410.00;5033836;28;20041;-51
2021/07/26 07:03:03;;;;;;;80.22;7.82;;;;;;;26.16;44.77;98415.03;5033853;28;20025;-51
2021/07/26 07:05:28;;;;;;;72.00;8.00;;;;;;;26.17;44.72;98412.03;5049083;28;20116;-51
2021/07/26 07:07:54;;;;;;;53.03;7.68;;;;;;;26.17;44.98;98417.41;5032380;28;20112;-50
2021/07/26 07:10:20;;;;;;;87.32;8.35;;;;;;;26.33;44.83;98422.41;5033660;28;20476;-51
2021/07/26 07:12:45;;;;;;;69.82;7.20;;;;;;;26.49;44.45;98427.03;5033668;28;20087;-51
2021/07/26 07:15:18;;;;;;;40.25;6.38;;;;;;;26.72;43.87;98416.19;5033536;28;20032;-51
2021/07/26 07:17:44;;;;;;;63.15;7.68;;;;;;;26.86;43.63;98424.97;5033354;28;20496;-51
2021/07/26 07:20:10;;;;;;;75.20;8.63;;;;;;;27.01;43.21;98422.94;5033477;28;20029;-51
2021/07/26 07:22:36;;;;;;;77.65;7.82;;;;;;;27.21;42.87;98418.81;5033470;28;20080;-51
2021/07/26 07:25:01;;;;;;;56.08;6.68;;;;;;;27.26;42.77;98422.16;5033410;28;20369;-51
2021/07/26 07:27:27;;;;;;;35.58;7.28;;;;;;;27.24;42.79;98427.06;5033280;28;20030;-51
2021/07/26 07:29:55;;;;;;;22.20;5.00;;;;;;;27.33;42.63;98426.31;5033253;28;20544;-51
2021/07/26 07:32:22;;;;;;;16.58;4.57;;;;;;;27.34;42.71;98419.78;5032556;28;20064;-51
2021/07/26 07:34:47;;;;;;;12.05;5.28;;;;;;;27.35;42.23;98424.88;5033056;28;20028;-51
2021/07/26 07:37:13;;;;;;;14.55;5.63;;;;;;;27.43;42.34;98424.06;5033166;28;20029;-51
2021/07/26 07:39:39;;;;;;;13.68;6.03;;;;;;;27.60;42.24;98417.06;5033168;28;20395;-51
2021/07/26 07:42:05;;;;;;;11.88;5.68;;;;;;;28.39;41.08;98421.16;5033083;28;20033;-51
2021/07/26 07:44:34;;;;;;;13.32;6.05;;;;;;;29.68;38.85;98417.91;5033008;28;20025;-51
2021/07/26 07:47:04;;;;;;;14.05;8.88;;;;;;;31.09;36.34;98422.41;5032977;28;20025;-51
2021/07/26 07:49:30;;;;;;;13.18;7.38;;;;;;;32.09;34.06;98422.44;5032756;28;20499;-51
2021/07/26 07:51:56;;;;;;;10.32;6.35;;;;;;;33.27;32.27;98418.94;5048169;28;20033;-51
2021/07/26 07:54:22;;;;;;;13.68;6.63;;;;;;;34.74;29.76;98412.53;5032874;28;20097;-49
2021/07/26 07:56:51;;;;;;;42.33;6.60;;;;;;;35.32;28.62;98411.34;5032744;28;20093;-49
2021/07/26 07:59:17;;;;;;;128.98;13.25;;;;;;;35.00;28.83;98404.31;5032691;28;20049;-49
2021/07/26 08:01:43;;;;;;;80.90;7.97;;;;;;;34.26;29.72;98418.41;5031376;28;20056;-48
2021/07/26 08:04:09;;;;;;;36.10;5.78;;;;;;;33.25;31.51;98420.44;5032703;28;20025;-49
2021/07/26 08:06:40;;;;;;;89.13;9.25;;;;;;;32.71;32.37;98428.22;5032606;28;20445;-51
2021/07/26 08:09:10;;;;;;;143.52;13.55;;;;;;;32.35;32.20;98432.00;5032568;28;20022;-51
2021/07/26 08:11:36;;;;;;;118.40;9.73;;;;;;;31.88;33.14;98428.09;5032807;28;20033;-51
2021/07/26 08:14:02;;;;;;;114.70;10.02;;;;;;;31.67;33.56;98432.97;5047767;28;20022;-51
2021/07/26 08:16:32;;;;;;;118.22;10.95;;;;;;;31.42;33.73;98436.53;5032460;28;20038;-51
2021/07/26 08:18:58;;;;;;;124.78;11.00;;;;;;;31.10;34.30;98443.75;5032186;28;20419;-51
2021/07/26 08:21:27;;;;;;;128.68;11.13;;;;;;;31.11;34.30;98448.06;5032538;28;20412;-51
2021/07/26 08:23:52;;;;;;;159.73;12.52;;;;;;;31.54;33.83;98445.81;5047636;28;20033;-51
2021/07/26 08:26:18;;;;;;;72.05;7.43;;;;;;;31.89;33.34;98443.25;5032211;28;20028;-51
2021/07/26 08:28:44;;;;;;;56.45;7.13;;;;;;;32.13;33.06;98444.25;5032161;28;20029;-51
2021/07/26 08:31:10;;;;;;;51.15;7.07;;;;;;;32.26;33.12;98443.06;5047496;28;20022;-51
2021/07/26 08:33:36;;;;;;;32.30;5.15;;;;;;;33.37;31.67;98450.22;5047380;28;20072;-51
2021/07/26 08:36:01;;;;;;;34.70;7.88;;;;;;;35.02;29.59;98447.59;5032110;28;20060;-49
2021/07/26 08:38:27;;;;;;;7.40;4.00;;;;;;;36.82;27.01;98444.69;5032366;28;20483;-49
2021/07/26 08:40:53;;;;;;;9.77;4.40;;;;;;;37.23;25.86;98441.00;5032033;28;20553;-52
2021/07/26 08:43:20;;;;;;;17.13;9.50;;;;;;;36.35;27.21;98449.84;5030703;28;20033;-51
2021/07/26 08:45:46;;;;;;;8.68;4.13;;;;;;;37.33;25.57;98451.25;5031904;28;20075;-51
2021/07/26 08:48:14;;;;;;;8.25;4.25;;;;;;;37.90;24.99;98448.66;5047229;28;20034;-51
2021/07/26 08:50:42;;;;;;;33.08;26.10;;;;;;;37.17;25.53;98451.56;5031863;28;20021;-52
2021/07/26 08:53:09;;;;;;;7.30;5.13;;;;;;;36.16;27.00;98455.53;5047234;28;20021;-51
2021/07/26 08:55:36;;;;;;;10.50;4.07;;;;;;;35.36;27.81;98456.63;5047163;28;20051;-52
2021/07/26 08:58:03;;;;;;;11.00;4.43;;;;;;;34.88;28.26;98459.09;5031876;28;20040;-52
2021/07/26 09:00:29;;;;;;;14.15;4.60;;;;;;;34.28;28.93;98465.16;5031749;28;20025;-51
2021/07/26 09:02:55;;;;;;;9.40;4.50;;;;;;;33.60;29.61;98456.50;5031814;28;20164;-49
2021/07/26 09:05:21;;;;;;;12.77;4.60;;;;;;;32.92;29.76;98467.88;5031728;28;20550;-49
2021/07/26 09:07:49;;;;;;;17.75;5.03;;;;;;;32.28;29.80;98470.66;5031773;28;20403;-51
2021/07/26 09:10:16;;;;;;;60.25;7.40;;;;;;;32.09;29.88;98481.41;5031659;28;20093;-51
2021/07/26 09:12:44;;;;;;;79.63;9.82;;;;;;;32.22;29.97;98477.47;5031723;28;20033;-51
2021/07/26 09:15:29;;;;;;;68.40;7.38;;;;;;;32.35;29.96;98475.47;5031716;28;20180;-51
2021/07/26 09:17:58;;;;;;;87.32;10.07;;;;;;;32.99;29.67;98476.19;5031407;28;20053;-51
2021/07/26 09:20:27;;;;;;;42.03;5.35;;;;;;;34.67;27.79;98475.13;5031547;28;20045;-51
2021/07/26 09:22:53;;;;;;;22.70;5.20;;;;;;;35.92;25.83;98462.31;5031950;28;20104;-49
2021/07/26 09:25:27;;;;;;;42.67;5.88;;;;;;;36.57;24.82;98469.91;5031514;28;20614;-49
2021/07/26 09:28:22;;;;;;;50.60;5.65;;;;;;;37.38;24.39;98472.75;5031648;28;20030;-51
2021/07/26 09:30:52;;;;;;;107.38;9.48;;;;;;;38.55;22.00;98465.16;5029807;28;20036;-52
2021/07/26 09:33:19;;;;;;;21.63;5.75;;;;;;;40.01;20.71;98462.28;5031842;28;20026;-52
2021/07/26 09:35:46;;;;;;;63.97;8.07;;;;;;;40.92;20.01;98472.13;5031397;28;20029;-52
2021/07/26 09:38:13;;;;;;;45.10;7.13;;;;;;;42.35;18.64;98454.84;5046762;28;20041;-52
2021/07/26 09:40:45;;;;;;;22.55;5.07;;;;;;;43.07;17.83;98457.09;5031473;28;20160;-52
2021/07/26 09:43:20;;;;;;;27.08;5.05;;;;;;;43.51;17.34;98454.19;5046805;28;20032;-52
2021/07/26 09:45:47;;;;;;;24.52;4.75;;;;;;;43.20;17.27;98455.22;5030077;28;20025;-52
2021/07/26 09:48:14;;;;;;;24.85;4.43;;;;;;;42.47;18.00;98459.78;5031378;28;20017;-52
2021/07/26 09:50:45;;;;;;;17.45;5.18;;;;;;;41.41;18.74;98452.66;5031325;28;20514;-52
2021/07/26 09:53:14;;;;;;;23.52;5.38;;;;;;;40.66;19.38;98462.53;5031381;28;20041;-52
2021/07/26 09:55:42;;;;;;;9.77;4.32;;;;;;;39.48;20.45;98455.91;5031545;28;20026;-51
2021/07/26 09:58:12;;;;;;;10.38;3.70;;;;;;;39.22;21.12;98454.44;5035092;28;20026;-51
2021/07/26 10:00:39;;;;;;;5.00;3.65;;;;;;;39.51;21.23;98460.59;5034967;28;20029;-51
2021/07/26 10:03:11;;;;;;;10.35;4.43;;;;;;;40.07;20.70;98458.69;5034935;28;20036;-51
2021/07/26 10:05:38;;;;;;;8.00;3.63;;;;;;;40.72;19.88;98458.91;5034940;28;20044;-52
2021/07/26 10:08:06;;;;;;;12.75;5.05;;;;;;;40.45;20.21;98458.03;5035169;28;20104;-52
2021/07/26 10:10:33;;;;;;;18.95;5.38;;;;;;;40.41;20.39;98460.00;5034671;28;20037;-51
2021/07/26 10:12:59;;;;;;;8.85;4.13;;;;;;;40.36;20.52;98452.22;5034853;28;20067;-51
2021/07/26 10:15:28;;;;;;;5.60;3.85;;;;;;;40.42;20.38;98450.56;5034744;28;20030;-51
2021/07/26 10:17:54;;;;;;;12.30;5.00;;;;;;;40.17;20.34;98451.56;5034517;28;20113;-51
2021/07/26 10:20:25;;;;;;;20.02;5.57;;;;;;;40.05;20.66;98449.31;5034611;28;20518;-52
2021/07/26 10:23:06;;;;;;;14.15;4.82;;;;;;;40.02;20.66;98461.09;5049933;28;20033;-51
2021/07/26 10:25:36;;;;;;;5.72;3.47;;;;;;;40.51;20.43;98464.66;5034597;28;20032;-52
2021/07/26 10:28:08;;;;;;;7.68;3.75;;;;;;;39.25;21.25;98459.91;5034588;28;20100;-52
2021/07/26 10:30:36;;;;;;;8.02;3.80;;;;;;;37.64;23.02;98466.22;5034445;28;20108;-52
2021/07/26 10:33:03;;;;;;;11.30;4.35;;;;;;;36.96;24.00;98463.16;5034385;28;20037;-52
2021/07/26 10:35:40;;;;;;;22.65;5.72;;;;;;;38.05;22.92;98452.22;5034327;28;20022;-52
2021/07/26 10:38:08;;;;;;;5.85;3.30;;;;;;;38.87;22.20;98453.34;5034406;28;20547;-52
2021/07/26 10:40:42;;;;;;;11.13;3.90;;;;;;;39.34;21.39;98460.28;5034229;28;20021;-52
2021/07/26 10:43:16;;;;;;;6.90;3.38;;;;;;;38.93;21.60;98458.03;5034303;28;20025;-52
2021/07/26 10:45:55;;;;;;;11.48;4.18;;;;;;;37.93;22.98;98467.06;5034227;28;20124;-51
2021/07/26 10:50:52;;;;;;;25.42;6.97;;;;;;;36.70;23.92;98464.94;5033998;28;20033;-52
2021/07/26 10:53:33;;;;;;;10.57;3.75;;;;;;;36.71;24.09;98461.06;5034308;28;20025;-51
2021/07/26 10:56:08;;;;;;;30.15;6.40;;;;;;;37.08;24.35;98468.28;5033901;28;20049;-52
2021/07/26 10:58:39;;;;;;;7.57;4.07;;;;;;;37.68;22.79;98458.03;5033993;28;20502;-52
2021/07/26 11:01:20;;;;;;;21.45;5.80;;;;;;;38.36;22.81;98455.38;5049405;28;20109;-52
2021/07/26 11:03:47;;;;;;;6.43;3.20;;;;;;;38.96;22.18;98459.22;5033901;28;20033;-52
2021/07/26 11:06:37;;;;;;;16.25;4.75;;;;;;;39.21;21.81;98456.41;5033809;28;20021;-52
2021/07/26 11:09:21;;;;;;;6.28;3.42;;;;;;;39.39;21.10;98445.34;5032587;28;20022;-51
2021/07/26 11:11:47;;;;;;;8.35;3.50;;;;;;;39.00;21.55;98450.97;5048942;28;20025;-52
2021/07/26 11:14:14;;;;;;;12.27;4.88;;;;;;;38.21;22.14;98454.56;5033656;28;20104;-51
2021/07/26 11:16:49;;;;;;;8.23;4.40;;;;;;;38.40;22.29;98438.91;5033412;28;20021;-52
2021/07/26 11:19:58;;;;;;;4.72;3.63;;;;;;;39.25;21.36;98434.41;5033618;28;20163;-52
2021/07/26 11:22:27;;;;;;;6.32;3.85;;;;;;;39.84;20.87;98433.72;5033496;28;20026;-52
2021/07/26 11:24:57;;;;;;;6.43;3.88;;;;;;;39.42;21.43;98433.59;5033451;28;20052;-51
2021/07/26 11:27:23;;;;;;;11.10;4.15;;;;;;;38.80;22.10;98431.41;5033337;28;20457;-52
2021/07/26 11:29:54;;;;;;;12.73;5.80;;;;;;;38.46;22.57;98427.16;5033284;28;20021;-51
2021/07/26 11:32:20;;;;;;;18.23;4.28;;;;;;;37.46;23.49;98438.75;5033272;28;20079;-51
2021/07/26 11:34:46;;;;;;;11.07;4.47;;;;;;;36.22;24.82;98434.09;5033244;28;20021;-51